createdAt,value
2019-04-10T00:00:11.191Z,13.85
2019-04-10T00:00:44.132Z,12.85
2019-04-10T00:01:15.506Z,13.05
2019-04-10T00:01:46.855Z,12.53
2019-04-10T00:02:18.112Z,12.60
2019-04-10T00:02:50.109Z,12.65
2019-04-10T00:03:28.929Z,12.68
2019-04-10T00:03:54.542Z,11.90
2019-04-10T00:04:25.802Z,11.73
2019-04-10T00:04:57.019Z,12.63
2019-04-10T00:05:28.226Z,12.33
2019-04-10T00:06:00.428Z,12.63
2019-04-10T00:06:32.004Z,11.93
2019-04-10T00:07:12.671Z,12.55
2019-04-10T00:07:36.253Z,12.15
2019-04-10T00:08:08.207Z,12.53
2019-04-10T00:08:39.499Z,13.32
2019-04-10T00:09:10.706Z,13.25
2019-04-10T00:09:41.911Z,12.63
2019-04-10T00:10:13.891Z,13.22
2019-04-10T00:10:45.836Z,13.00
2019-04-10T00:11:17.111Z,12.35
2019-04-10T00:11:49.143Z,12.85
2019-04-10T00:12:21.230Z,11.83
2019-04-10T00:12:52.437Z,12.40
2019-04-10T00:13:24.630Z,11.03
2019-04-10T00:13:55.925Z,11.38
2019-04-10T00:14:28.173Z,13.10
2019-04-10T00:14:59.445Z,12.37
2019-04-10T00:15:30.704Z,10.58
2019-04-10T00:16:01.869Z,12.43
2019-04-10T00:16:42.508Z,11.22
2019-04-10T00:17:13.888Z,11.55
2019-04-10T00:17:45.143Z,11.85
2019-04-10T00:18:16.352Z,11.57
2019-04-10T00:18:48.458Z,12.20
2019-04-10T00:19:20.329Z,12.00
2019-04-10T00:19:51.925Z,11.90
2019-04-10T00:20:23.165Z,12.05
2019-04-10T00:20:54.379Z,11.57
2019-04-10T00:21:25.581Z,11.80
2019-04-10T00:21:57.776Z,11.63
2019-04-10T00:22:29.038Z,13.18
2019-04-10T00:23:00.399Z,12.70
2019-04-10T00:23:31.641Z,12.33
2019-04-10T00:24:03.884Z,12.30
2019-04-10T00:24:35.709Z,12.65
2019-04-10T00:25:06.939Z,12.00
2019-04-10T00:25:39.165Z,12.70
2019-04-10T00:26:10.437Z,13.43
2019-04-10T00:26:41.749Z,11.12
2019-04-10T00:27:12.974Z,11.30
2019-04-10T00:27:45.080Z,10.00
2019-04-10T00:28:17.035Z,13.00
2019-04-10T00:28:48.321Z,11.68
2019-04-10T00:29:20.310Z,11.55
2019-04-10T00:29:52.338Z,11.20
2019-04-10T00:30:23.609Z,12.28
2019-04-10T00:30:55.635Z,11.50
2019-04-10T00:31:26.911Z,13.15
2019-04-10T00:32:01.343Z,12.85
2019-04-10T00:32:32.081Z,13.00
2019-04-10T00:33:03.298Z,12.75
2019-04-10T00:33:34.717Z,12.47
2019-04-10T00:34:05.956Z,13.08
2019-04-10T00:34:37.931Z,12.50
2019-04-10T00:35:09.160Z,12.85
2019-04-10T00:35:40.415Z,12.07
2019-04-10T00:36:12.119Z,11.88
2019-04-10T00:36:43.626Z,12.55
2019-04-10T00:37:23.955Z,12.78
2019-04-10T00:37:47.836Z,12.40
2019-04-10T00:38:19.831Z,12.47
2019-04-10T00:38:51.047Z,11.93
2019-04-10T00:39:22.358Z,12.37
2019-04-10T00:39:53.557Z,13.05
2019-04-10T00:40:25.616Z,12.00
2019-04-10T00:40:57.537Z,12.68
2019-04-10T00:41:28.765Z,11.28
2019-04-10T00:42:00.888Z,12.75
2019-04-10T00:42:32.810Z,13.00
2019-04-10T00:43:04.087Z,11.03
2019-04-10T00:43:35.313Z,13.25
2019-04-10T00:44:07.713Z,12.33
2019-04-10T00:44:39.657Z,15.38
2019-04-10T00:45:11.273Z,13.35
2019-04-10T00:45:42.506Z,12.58
2019-04-10T00:46:13.732Z,12.95
2019-04-10T00:46:45.033Z,12.43
2019-04-10T00:47:17.029Z,12.05
2019-04-10T00:47:48.472Z,13.05
2019-04-10T00:48:19.706Z,11.83
2019-04-10T00:48:50.928Z,11.90
2019-04-10T00:49:22.232Z,11.85
2019-04-10T00:49:53.728Z,13.08
2019-04-10T00:50:24.935Z,13.93
2019-04-10T00:50:57.086Z,13.43
2019-04-10T00:51:28.362Z,12.65
2019-04-10T00:51:59.655Z,14.03
2019-04-10T00:52:30.918Z,13.38
2019-04-10T00:53:02.943Z,13.03
2019-04-10T00:53:34.918Z,14.15
2019-04-10T00:54:06.205Z,13.68
2019-04-10T00:54:37.455Z,14.20
2019-04-10T00:55:08.700Z,13.22
2019-04-10T00:55:39.970Z,11.85
2019-04-10T00:56:11.215Z,11.38
2019-04-10T00:56:43.357Z,12.70
2019-04-10T00:57:15.027Z,13.98
2019-04-10T00:57:46.310Z,12.82
2019-04-10T00:58:18.301Z,13.38
2019-04-10T00:58:49.569Z,12.73
2019-04-10T00:59:20.932Z,12.78
2019-04-10T00:59:52.594Z,13.30
2019-04-10T01:00:24.066Z,14.25
2019-04-10T01:00:55.284Z,13.72
2019-04-10T01:01:27.658Z,13.70
2019-04-10T01:01:58.882Z,14.53
2019-04-10T01:02:30.588Z,14.33
2019-04-10T01:03:02.005Z,13.03
2019-04-10T01:03:33.711Z,14.03
2019-04-10T01:04:04.959Z,14.10
2019-04-10T01:04:36.247Z,13.93
2019-04-10T01:05:07.591Z,14.60
2019-04-10T01:05:39.645Z,13.88
2019-04-10T01:06:11.499Z,14.03
2019-04-10T01:06:42.848Z,13.60
2019-04-10T01:07:14.791Z,13.80
2019-04-10T01:07:47.098Z,14.80
2019-04-10T01:08:18.600Z,12.60
2019-04-10T01:08:52.997Z,14.73
2019-04-10T01:09:25.621Z,14.45
2019-04-10T01:09:57.587Z,14.33
2019-04-10T01:10:30.451Z,14.45
2019-04-10T01:11:02.868Z,14.15
2019-04-10T01:11:34.971Z,13.65
2019-04-10T01:12:06.438Z,14.65
2019-04-10T01:12:38.362Z,14.87
2019-04-10T01:13:10.645Z,13.60
2019-04-10T01:13:41.902Z,13.98
2019-04-10T01:14:13.739Z,13.83
2019-04-10T01:14:45.649Z,14.55
2019-04-10T01:15:17.033Z,14.05
2019-04-10T01:15:49.080Z,13.68
2019-04-10T01:16:20.840Z,13.43
2019-04-10T01:17:04.432Z,13.50
2019-04-10T01:17:36.620Z,13.65
2019-04-10T01:18:10.942Z,14.35
2019-04-10T01:18:42.225Z,14.20
2019-04-10T01:19:15.449Z,13.90
2019-04-10T01:19:46.872Z,14.68
2019-04-10T01:20:18.206Z,13.90
2019-04-10T01:20:50.170Z,13.98
2019-04-10T01:21:22.163Z,13.80
2019-04-10T01:21:54.855Z,14.50
2019-04-10T01:22:27.407Z,14.53
2019-04-10T01:22:59.747Z,13.58
2019-04-10T01:23:31.051Z,14.78
2019-04-10T01:24:03.624Z,13.90
2019-04-10T01:24:37.684Z,14.33
2019-04-10T01:25:09.028Z,14.95
2019-04-10T01:25:40.882Z,14.45
2019-04-10T01:26:12.798Z,13.53
2019-04-10T01:26:45.517Z,13.60
2019-04-10T01:27:17.813Z,12.85
2019-04-10T01:27:50.038Z,14.30
2019-04-10T01:28:22.620Z,14.03
2019-04-10T01:28:54.276Z,13.75
2019-04-10T01:29:27.275Z,13.68
2019-04-10T01:30:02.354Z,13.58
2019-04-10T01:30:34.721Z,14.50
2019-04-10T01:31:06.744Z,13.95
2019-04-10T01:31:39.419Z,12.50
2019-04-10T01:32:11.907Z,12.28
2019-04-10T01:32:43.981Z,12.95
2019-04-10T01:33:16.369Z,12.78
2019-04-10T01:33:47.851Z,14.23
2019-04-10T01:34:19.151Z,12.80
2019-04-10T01:34:52.485Z,12.90
2019-04-10T01:35:24.651Z,11.73
2019-04-10T01:35:58.451Z,13.08
2019-04-10T01:36:33.301Z,12.40
2019-04-10T01:37:06.793Z,13.53
2019-04-10T01:37:48.770Z,13.32
2019-04-10T01:38:12.140Z,12.93
2019-04-10T01:38:43.843Z,13.05
2019-04-10T01:39:16.424Z,12.58
2019-04-10T01:39:48.611Z,12.28
2019-04-10T01:40:23.417Z,12.33
2019-04-10T01:40:55.674Z,11.88
2019-04-10T01:41:27.834Z,12.23
2019-04-10T01:42:00.590Z,12.85
2019-04-10T01:42:34.196Z,12.45
2019-04-10T01:43:12.471Z,12.93
2019-04-10T01:43:39.584Z,13.30
2019-04-10T01:44:11.110Z,13.18
2019-04-10T01:44:45.438Z,12.68
2019-04-10T01:45:17.490Z,12.88
2019-04-10T01:45:49.519Z,13.00
2019-04-10T01:46:22.300Z,14.15
2019-04-10T01:46:54.891Z,14.80
2019-04-10T01:47:26.919Z,15.30
2019-04-10T01:47:59.508Z,14.00
2019-04-10T01:48:32.076Z,14.40
2019-04-10T01:49:05.200Z,15.30
2019-04-10T01:49:37.965Z,15.35
2019-04-10T01:50:09.187Z,14.20
2019-04-10T01:50:41.090Z,14.43
2019-04-10T01:51:17.230Z,14.87
2019-04-10T01:51:49.731Z,16.20
2019-04-10T01:52:21.119Z,15.60
2019-04-10T01:52:53.496Z,15.95
2019-04-10T01:53:26.719Z,16.35
2019-04-10T01:53:58.514Z,15.18
2019-04-10T01:54:29.866Z,17.62
2019-04-10T01:55:03.173Z,16.48
2019-04-10T01:55:35.715Z,15.18
2019-04-10T01:56:21.154Z,15.72
2019-04-10T01:56:41.593Z,15.65
2019-04-10T01:57:14.652Z,16.73
2019-04-10T01:57:46.825Z,15.40
2019-04-10T01:58:19.082Z,16.40
2019-04-10T01:58:51.697Z,16.60
2019-04-10T01:59:23.601Z,14.07
2019-04-10T01:59:55.038Z,15.08
2019-04-10T02:00:26.321Z,16.25
2019-04-10T02:00:57.625Z,15.25
2019-04-10T02:01:29.428Z,15.50
2019-04-10T02:02:01.085Z,16.23
2019-04-10T02:02:32.359Z,14.73
2019-04-10T02:03:03.649Z,15.60
2019-04-10T02:03:34.911Z,14.58
2019-04-10T02:04:06.806Z,12.88
2019-04-10T02:04:38.142Z,14.03
2019-04-10T02:05:09.433Z,14.83
2019-04-10T02:05:40.845Z,12.65
2019-04-10T02:06:12.142Z,12.98
2019-04-10T02:06:43.408Z,12.28
2019-04-10T02:07:14.675Z,12.37
2019-04-10T02:07:57.842Z,12.63
2019-04-10T02:08:19.058Z,13.80
2019-04-10T02:08:50.531Z,12.00
2019-04-10T02:09:23.448Z,12.37
2019-04-10T02:09:54.675Z,10.70
2019-04-10T02:10:25.991Z,11.28
2019-04-10T02:10:57.305Z,11.12
2019-04-10T02:11:28.559Z,11.08
2019-04-10T02:11:59.842Z,11.63
2019-04-10T02:12:31.136Z,9.68
2019-04-10T02:13:03.225Z,10.35
2019-04-10T02:13:34.603Z,11.05
2019-04-10T02:14:05.827Z,10.45
2019-04-10T02:14:37.072Z,11.65
2019-04-10T02:15:13.905Z,10.15
2019-04-10T02:15:43.996Z,11.22
2019-04-10T02:16:15.354Z,10.82
2019-04-10T02:16:47.309Z,9.33
2019-04-10T02:17:18.568Z,10.05
2019-04-10T02:17:49.851Z,8.03
2019-04-10T02:18:21.496Z,9.43
2019-04-10T02:18:52.784Z,8.50
2019-04-10T02:19:24.083Z,10.65
2019-04-10T02:19:55.424Z,9.23
2019-04-10T02:20:27.775Z,8.95
2019-04-10T02:20:59.257Z,10.20
2019-04-10T02:21:30.512Z,8.83
2019-04-10T02:22:02.416Z,8.53
2019-04-10T02:22:34.329Z,8.75
2019-04-10T02:23:05.881Z,8.48
2019-04-10T02:23:38.573Z,8.15
2019-04-10T02:24:09.869Z,8.13
2019-04-10T02:24:41.120Z,7.70
2019-04-10T02:25:12.466Z,7.97
2019-04-10T02:25:45.144Z,8.13
2019-04-10T02:26:17.103Z,8.38
2019-04-10T02:26:48.397Z,7.75
2019-04-10T02:27:20.665Z,7.42
2019-04-10T02:27:51.952Z,8.68
2019-04-10T02:28:24.211Z,7.45
2019-04-10T02:28:55.634Z,7.50
2019-04-10T02:29:27.978Z,7.20
2019-04-10T02:29:59.944Z,7.10
2019-04-10T02:30:33.006Z,7.58
2019-04-10T02:31:07.036Z,7.80
2019-04-10T02:31:39.050Z,7.50
2019-04-10T02:32:12.064Z,7.15
2019-04-10T02:32:47.643Z,7.80
2019-04-10T02:33:19.193Z,7.53
2019-04-10T02:33:53.751Z,6.65
2019-04-10T02:34:25.166Z,7.60
2019-04-10T02:34:58.235Z,7.40
2019-04-10T02:35:29.895Z,7.20
2019-04-10T02:36:01.566Z,7.87
2019-04-10T02:36:35.794Z,7.00
2019-04-10T02:37:08.648Z,7.87
2019-04-10T02:37:41.696Z,6.97
2019-04-10T02:38:30.950Z,7.55
2019-04-10T02:38:59.504Z,6.75
2019-04-10T02:39:29.763Z,6.65
2019-04-10T02:39:57.816Z,6.58
2019-04-10T02:40:26.655Z,7.25
2019-04-10T02:41:01.652Z,7.25
2019-04-10T02:41:34.579Z,6.78
2019-04-10T02:42:08.126Z,6.62
2019-04-10T02:42:41.022Z,7.33
2019-04-10T02:43:13.978Z,7.80
2019-04-10T02:43:47.330Z,7.58
2019-04-10T02:44:18.812Z,6.65
2019-04-10T02:44:52.022Z,6.62
2019-04-10T02:45:24.169Z,7.08
2019-04-10T02:45:57.586Z,7.00
2019-04-10T02:46:29.347Z,6.50
2019-04-10T02:47:01.993Z,6.80
2019-04-10T02:47:34.745Z,7.25
2019-04-10T02:48:08.090Z,6.03
2019-04-10T02:48:41.572Z,6.50
2019-04-10T02:49:14.452Z,7.25
2019-04-10T02:49:47.176Z,6.80
2019-04-10T02:50:20.670Z,7.33
2019-04-10T02:50:55.540Z,6.42
2019-04-10T02:51:27.165Z,7.12
2019-04-10T02:51:58.996Z,6.70
2019-04-10T02:52:30.780Z,6.15
2019-04-10T02:53:07.566Z,6.22
2019-04-10T02:53:39.449Z,5.67
2019-04-10T02:54:11.471Z,6.55
2019-04-10T02:54:43.651Z,6.62
2019-04-10T02:55:18.692Z,7.00
2019-04-10T02:55:51.593Z,6.47
2019-04-10T02:56:25.257Z,6.08
2019-04-10T02:56:56.948Z,6.62
2019-04-10T02:57:29.430Z,5.42
2019-04-10T02:58:02.672Z,6.20
2019-04-10T02:58:34.448Z,6.35
2019-04-10T02:59:07.350Z,7.17
2019-04-10T02:59:43.145Z,5.87
2019-04-10T03:00:18.047Z,6.55
2019-04-10T03:00:53.900Z,6.33
2019-04-10T03:01:23.526Z,6.33
2019-04-10T03:01:56.057Z,6.55
2019-04-10T03:02:29.434Z,6.58
2019-04-10T03:03:05.615Z,6.67
2019-04-10T03:03:40.310Z,6.72
2019-04-10T03:04:16.541Z,6.97
2019-04-10T03:04:49.236Z,7.00
2019-04-10T03:05:25.700Z,6.50
2019-04-10T03:06:02.520Z,6.67
2019-04-10T03:06:35.378Z,6.22
2019-04-10T03:07:09.543Z,6.30
2019-04-10T03:07:44.368Z,5.90
2019-04-10T03:09:26.006Z,6.70
2019-04-10T03:10:00.457Z,6.28
2019-04-10T03:10:29.852Z,6.22
2019-04-10T03:11:01.648Z,6.20
2019-04-10T03:11:31.301Z,6.30
2019-04-10T03:12:03.721Z,5.83
2019-04-10T03:12:36.415Z,6.28
2019-04-10T03:13:11.474Z,6.83
2019-04-10T03:13:43.050Z,6.83
2019-04-10T03:14:16.765Z,6.60
2019-04-10T03:14:49.845Z,6.45
2019-04-10T03:15:25.227Z,7.17
2019-04-10T03:15:57.792Z,6.70
2019-04-10T03:16:37.661Z,6.80
2019-04-10T03:17:12.236Z,6.65
2019-04-10T03:17:44.667Z,6.78
2019-04-10T03:18:16.817Z,5.87
2019-04-10T03:18:51.611Z,6.20
2019-04-10T03:19:25.538Z,6.40
2019-04-10T03:19:58.082Z,7.20
2019-04-10T03:20:30.129Z,6.90
2019-04-10T03:21:02.754Z,6.67
2019-04-10T03:21:35.360Z,7.05
2019-04-10T03:22:07.886Z,7.22
2019-04-10T03:22:41.019Z,7.47
2019-04-10T03:23:13.524Z,6.83
2019-04-10T03:23:45.427Z,7.15
2019-04-10T03:24:16.830Z,7.00
2019-04-10T03:24:48.520Z,6.80
2019-04-10T03:25:24.564Z,7.67
2019-04-10T03:25:57.053Z,7.58
2019-04-10T03:26:29.811Z,6.60
2019-04-10T03:27:01.806Z,7.67
2019-04-10T03:27:34.423Z,7.70
2019-04-10T03:28:09.105Z,7.05
2019-04-10T03:28:40.960Z,6.78
2019-04-10T03:29:13.540Z,6.92
2019-04-10T03:29:46.376Z,7.40
2019-04-10T03:30:20.617Z,7.40
2019-04-10T03:30:53.865Z,6.28
2019-04-10T03:31:27.187Z,6.53
2019-04-10T03:31:59.516Z,7.55
2019-04-10T03:32:36.404Z,7.85
2019-04-10T03:33:09.346Z,6.80
2019-04-10T03:33:42.890Z,7.35
2019-04-10T03:34:14.254Z,7.33
2019-04-10T03:34:47.502Z,6.17
2019-04-10T03:35:18.731Z,7.28
2019-04-10T03:35:51.416Z,6.90
2019-04-10T03:36:23.240Z,7.60
2019-04-10T03:36:55.931Z,7.25
2019-04-10T03:37:28.530Z,7.42
2019-04-10T03:37:59.978Z,6.35
2019-04-10T03:38:32.153Z,7.22
2019-04-10T03:39:06.168Z,7.60
2019-04-10T03:39:36.483Z,8.25
2019-04-10T03:40:08.117Z,7.97
2019-04-10T03:40:39.759Z,8.05
2019-04-10T03:41:12.393Z,8.00
2019-04-10T03:41:44.277Z,8.03
2019-04-10T03:42:16.735Z,7.60
2019-04-10T03:42:48.174Z,8.00
2019-04-10T03:43:19.530Z,8.20
2019-04-10T03:43:50.831Z,8.73
2019-04-10T03:44:22.860Z,8.58
2019-04-10T03:44:54.874Z,8.18
2019-04-10T03:45:26.494Z,9.15
2019-04-10T03:45:59.121Z,8.90
2019-04-10T03:46:30.454Z,9.13
2019-04-10T03:47:02.832Z,9.10
2019-04-10T03:47:34.160Z,9.40
2019-04-10T03:48:06.410Z,9.40
2019-04-10T03:48:38.896Z,10.43
2019-04-10T03:49:11.800Z,9.43
2019-04-10T03:49:44.247Z,9.18
2019-04-10T03:50:16.333Z,9.53
2019-04-10T03:50:50.263Z,8.23
2019-04-10T03:51:22.761Z,8.95
2019-04-10T03:51:55.439Z,9.28
2019-04-10T03:52:27.450Z,9.15
2019-04-10T03:53:00.355Z,8.18
2019-04-10T03:53:32.138Z,10.55
2019-04-10T03:54:04.726Z,9.05
2019-04-10T03:54:36.296Z,9.38
2019-04-10T03:55:08.958Z,9.40
2019-04-10T03:55:40.992Z,10.18
2019-04-10T03:56:12.350Z,9.30
2019-04-10T03:56:43.651Z,9.55
2019-04-10T03:57:14.991Z,9.70
2019-04-10T03:57:46.931Z,9.75
2019-04-10T03:58:19.694Z,9.28
2019-04-10T03:58:53.246Z,9.90
2019-04-10T03:59:24.557Z,9.53
2019-04-10T03:59:56.040Z,9.73
2019-04-10T04:00:28.367Z,8.65
2019-04-10T04:01:00.756Z,9.65
2019-04-10T04:01:33.394Z,10.43
2019-04-10T04:02:05.271Z,10.23
2019-04-10T04:02:38.090Z,9.93
2019-04-10T04:03:10.579Z,9.13
2019-04-10T04:03:42.681Z,9.38
2019-04-10T04:04:13.965Z,8.38
2019-04-10T04:04:46.022Z,9.25
2019-04-10T04:05:18.291Z,9.28
2019-04-10T04:05:49.690Z,8.83
2019-04-10T04:06:21.719Z,9.33
2019-04-10T04:06:53.019Z,8.58
2019-04-10T04:07:26.940Z,9.75
2019-04-10T04:07:59.179Z,9.13
2019-04-10T04:08:31.913Z,8.80
2019-04-10T04:09:09.361Z,8.40
2019-04-10T04:09:39.774Z,8.85
2019-04-10T04:10:11.044Z,8.88
2019-04-10T04:10:42.697Z,8.90
2019-04-10T04:11:17.536Z,9.13
2019-04-10T04:11:48.881Z,9.98
2019-04-10T04:12:20.513Z,9.38
2019-04-10T04:12:51.818Z,9.70
2019-04-10T04:13:23.683Z,9.70
2019-04-10T04:13:55.618Z,9.78
2019-04-10T04:14:27.018Z,8.98
2019-04-10T04:14:59.113Z,9.33
2019-04-10T04:15:30.535Z,9.60
2019-04-10T04:16:02.267Z,8.53
2019-04-10T04:16:35.318Z,9.93
2019-04-10T04:17:06.582Z,9.00
2019-04-10T04:17:38.031Z,8.40
2019-04-10T04:18:09.318Z,8.95
2019-04-10T04:18:41.489Z,10.28
2019-04-10T04:19:13.540Z,9.10
2019-04-10T04:19:45.066Z,9.93
2019-04-10T04:20:16.935Z,9.83
2019-04-10T04:20:48.456Z,9.78
2019-04-10T04:21:20.576Z,9.80
2019-04-10T04:21:52.362Z,10.18
2019-04-10T04:22:25.061Z,9.15
2019-04-10T04:22:57.080Z,9.40
2019-04-10T04:23:28.466Z,9.28
2019-04-10T04:23:59.750Z,9.93
2019-04-10T04:24:31.550Z,9.75
2019-04-10T04:25:04.596Z,11.08
2019-04-10T04:25:37.090Z,9.95
2019-04-10T04:26:08.765Z,9.50
2019-04-10T04:26:40.453Z,10.10
2019-04-10T04:27:11.751Z,9.70
2019-04-10T04:27:44.125Z,10.38
2019-04-10T04:28:15.564Z,10.32
2019-04-10T04:28:49.427Z,9.98
2019-04-10T04:29:21.078Z,10.13
2019-04-10T04:29:52.411Z,10.15
2019-04-10T04:30:24.678Z,10.35
2019-04-10T04:30:56.803Z,11.05
2019-04-10T04:31:31.217Z,10.95
2019-04-10T04:32:02.559Z,10.95
2019-04-10T04:32:33.897Z,10.95
2019-04-10T04:33:06.650Z,11.22
2019-04-10T04:33:39.049Z,11.20
2019-04-10T04:34:12.269Z,10.98
2019-04-10T04:34:43.938Z,12.07
2019-04-10T04:35:15.717Z,11.12
2019-04-10T04:35:47.422Z,10.82
2019-04-10T04:36:20.317Z,12.28
2019-04-10T04:36:53.323Z,12.23
2019-04-10T04:37:25.779Z,13.13
2019-04-10T04:37:58.299Z,11.93
2019-04-10T04:38:29.668Z,12.18
2019-04-10T04:39:12.778Z,12.00
2019-04-10T04:39:34.951Z,11.80
2019-04-10T04:40:06.306Z,12.20
2019-04-10T04:40:37.783Z,11.57
2019-04-10T04:41:09.095Z,11.95
2019-04-10T04:41:40.382Z,12.93
2019-04-10T04:42:12.642Z,12.80
2019-04-10T04:42:44.109Z,12.35
2019-04-10T04:43:15.344Z,13.30
2019-04-10T04:43:47.659Z,13.22
2019-04-10T04:44:20.292Z,13.25
2019-04-10T04:44:52.112Z,13.35
2019-04-10T04:45:23.539Z,12.55
2019-04-10T04:45:55.419Z,13.43
2019-04-10T04:46:26.729Z,13.55
2019-04-10T04:46:58.887Z,13.35
2019-04-10T04:47:30.995Z,13.22
2019-04-10T04:48:02.284Z,13.78
2019-04-10T04:48:34.276Z,14.50
2019-04-10T04:49:05.514Z,14.58
2019-04-10T04:49:37.752Z,14.07
2019-04-10T04:50:09.773Z,14.63
2019-04-10T04:50:41.608Z,13.68
2019-04-10T04:51:12.909Z,13.45
2019-04-10T04:51:44.125Z,13.95
2019-04-10T04:52:16.267Z,13.80
2019-04-10T04:52:47.626Z,14.47
2019-04-10T04:53:18.850Z,14.28
2019-04-10T04:53:50.492Z,14.18
2019-04-10T04:54:21.756Z,15.13
2019-04-10T04:54:53.284Z,14.60
2019-04-10T04:55:24.620Z,15.35
2019-04-10T04:55:55.804Z,15.00
2019-04-10T04:56:28.129Z,14.80
2019-04-10T04:57:00.148Z,14.33
2019-04-10T04:57:34.188Z,14.18
2019-04-10T04:58:04.424Z,15.00
2019-04-10T04:58:36.071Z,14.98
2019-04-10T04:59:08.012Z,15.58
2019-04-10T04:59:39.246Z,15.13
2019-04-10T05:00:10.464Z,15.30
2019-04-10T05:00:41.829Z,15.58
2019-04-10T05:01:13.040Z,14.18
2019-04-10T05:01:44.788Z,15.45
2019-04-10T05:02:16.021Z,16.90
2019-04-10T05:02:48.176Z,15.35
2019-04-10T05:03:19.418Z,14.75
2019-04-10T05:03:50.654Z,17.17
2019-04-10T05:04:22.909Z,17.62
2019-04-10T05:04:54.154Z,16.10
2019-04-10T05:05:25.419Z,15.18
2019-04-10T05:05:56.635Z,22.17
2019-04-10T05:06:27.838Z,18.07
2019-04-10T05:06:59.915Z,15.58
2019-04-10T05:07:31.334Z,15.05
2019-04-10T05:08:04.338Z,21.05
2019-04-10T05:08:35.550Z,18.20
2019-04-10T05:09:06.830Z,25.35
2019-04-10T05:09:39.335Z,17.80
2019-04-10T05:10:11.205Z,18.23
2019-04-10T05:10:42.472Z,14.93
2019-04-10T05:11:13.913Z,19.82
2019-04-10T05:11:45.181Z,17.35
2019-04-10T05:12:16.677Z,16.30
2019-04-10T05:12:49.514Z,17.52
2019-04-10T05:13:20.754Z,30.77
2019-04-10T05:13:53.006Z,15.63
2019-04-10T05:14:24.277Z,17.87
2019-04-10T05:14:55.785Z,16.95
2019-04-10T05:15:27.034Z,23.42
2019-04-10T05:15:58.244Z,16.82
2019-04-10T05:16:29.484Z,15.88
2019-04-10T05:17:00.679Z,15.95
2019-04-10T05:17:32.968Z,14.55
2019-04-10T05:18:04.296Z,18.73
2019-04-10T05:18:35.515Z,16.42
2019-04-10T05:19:06.734Z,17.85
2019-04-10T05:19:38.314Z,16.12
2019-04-10T05:20:09.573Z,16.45
2019-04-10T05:20:45.917Z,14.68
2019-04-10T05:21:13.838Z,15.50
2019-04-10T05:21:45.647Z,14.35
2019-04-10T05:22:16.939Z,14.43
2019-04-10T05:22:49.188Z,15.93
2019-04-10T05:23:22.278Z,16.57
2019-04-10T05:23:53.620Z,15.25
2019-04-10T05:24:24.851Z,15.10
2019-04-10T05:24:56.408Z,15.43
2019-04-10T05:25:27.681Z,30.77
2019-04-10T05:25:59.195Z,16.05
2019-04-10T05:26:32.360Z,14.75
2019-04-10T05:27:03.638Z,15.43
2019-04-10T05:27:35.042Z,22.32
2019-04-10T05:28:06.303Z,15.75
2019-04-10T05:28:38.129Z,31.07
2019-04-10T05:29:09.458Z,16.85
2019-04-10T05:29:40.956Z,20.97
2019-04-10T05:30:12.878Z,17.98
2019-04-10T05:30:45.056Z,20.92
2019-04-10T05:31:17.253Z,15.60
2019-04-10T05:31:48.967Z,18.73
2019-04-10T05:32:21.288Z,14.05
2019-04-10T05:32:52.778Z,17.95
2019-04-10T05:33:24.725Z,16.10
2019-04-10T05:33:56.042Z,14.93
2019-04-10T05:34:27.608Z,17.95
2019-04-10T05:34:58.866Z,15.28
2019-04-10T05:35:30.071Z,21.07
2019-04-10T05:36:01.400Z,19.77
2019-04-10T05:36:33.519Z,16.52
2019-04-10T05:37:05.297Z,23.05
2019-04-10T05:37:36.504Z,18.48
2019-04-10T05:38:08.051Z,18.52
2019-04-10T05:38:39.352Z,15.48
2019-04-10T05:39:10.710Z,20.70
2019-04-10T05:39:47.804Z,18.80
2019-04-10T05:40:15.273Z,18.30
2019-04-10T05:40:46.480Z,16.90
2019-04-10T05:41:17.731Z,20.60
2019-04-10T05:41:48.995Z,18.12
2019-04-10T05:42:20.643Z,17.77
2019-04-10T05:42:51.939Z,22.25
2019-04-10T05:43:23.997Z,23.10
2019-04-10T05:43:55.311Z,26.27
2019-04-10T05:44:27.650Z,17.75
2019-04-10T05:44:58.934Z,34.00
2019-04-10T05:45:30.168Z,34.88
2019-04-10T05:46:01.380Z,22.30
2019-04-10T05:46:32.619Z,31.87
2019-04-10T05:47:03.807Z,18.35
2019-04-10T05:47:35.085Z,35.50
2019-04-10T05:48:06.787Z,17.48
2019-04-10T05:48:38.107Z,18.20
2019-04-10T05:49:09.316Z,17.37
2019-04-10T05:49:41.463Z,16.48
2019-04-10T05:50:13.034Z,17.62
2019-04-10T05:50:53.900Z,17.65
2019-04-10T05:51:17.191Z,20.10
2019-04-10T05:51:48.478Z,20.32
2019-04-10T05:52:20.343Z,70.37
2019-04-10T05:52:51.834Z,17.52
2019-04-10T05:53:23.238Z,16.85
2019-04-10T05:53:55.438Z,25.40
2019-04-10T05:54:27.009Z,17.23
2019-04-10T05:54:58.278Z,18.23
2019-04-10T05:55:29.487Z,18.00
2019-04-10T05:56:01.507Z,21.62
2019-04-10T05:56:32.836Z,20.17
2019-04-10T05:57:04.181Z,22.15
2019-04-10T05:57:35.771Z,19.10
2019-04-10T05:58:07.212Z,17.42
2019-04-10T05:58:39.497Z,17.87
2019-04-10T05:59:12.090Z,17.32
2019-04-10T05:59:43.953Z,17.20
2019-04-10T06:00:16.627Z,18.07
2019-04-10T06:00:49.671Z,17.40
2019-04-10T06:01:31.428Z,18.02
2019-04-10T06:01:54.195Z,18.92
2019-04-10T06:02:27.138Z,18.73
2019-04-10T06:02:58.534Z,17.82
2019-04-10T06:03:30.310Z,17.92
2019-04-10T06:04:01.641Z,17.90
2019-04-10T06:04:33.575Z,17.60
2019-04-10T06:05:05.641Z,18.98
2019-04-10T06:05:37.012Z,18.73
2019-04-10T06:06:08.406Z,17.65
2019-04-10T06:06:39.855Z,17.45
2019-04-10T06:07:12.731Z,17.32
2019-04-10T06:07:44.029Z,17.62
2019-04-10T06:08:16.102Z,17.50
2019-04-10T06:08:47.385Z,18.98
2019-04-10T06:09:18.636Z,16.65
2019-04-10T06:09:55.955Z,18.17
2019-04-10T06:10:22.889Z,18.90
2019-04-10T06:10:54.128Z,17.52
2019-04-10T06:11:25.332Z,19.52
2019-04-10T06:11:57.352Z,18.73
2019-04-10T06:12:28.647Z,19.90
2019-04-10T06:13:00.505Z,20.90
2019-04-10T06:13:32.626Z,19.42
2019-04-10T06:14:03.904Z,19.70
2019-04-10T06:14:35.129Z,16.85
2019-04-10T06:15:06.505Z,17.45
2019-04-10T06:15:37.791Z,18.35
2019-04-10T06:16:09.769Z,20.08
2019-04-10T06:16:41.067Z,23.00
2019-04-10T06:17:12.304Z,19.20
2019-04-10T06:17:44.749Z,17.70
2019-04-10T06:18:16.046Z,16.52
2019-04-10T06:18:47.264Z,17.40
2019-04-10T06:19:18.503Z,18.05
2019-04-10T06:19:50.963Z,17.85
2019-04-10T06:20:25.059Z,17.27
2019-04-10T06:20:55.275Z,16.65
2019-04-10T06:21:27.283Z,16.50
2019-04-10T06:21:59.637Z,17.60
2019-04-10T06:22:30.851Z,16.82
2019-04-10T06:23:03.146Z,17.75
2019-04-10T06:23:34.468Z,18.12
2019-04-10T06:24:05.868Z,17.73
2019-04-10T06:24:38.377Z,17.77
2019-04-10T06:25:11.680Z,18.73
2019-04-10T06:25:43.539Z,17.92
2019-04-10T06:26:16.558Z,18.80
2019-04-10T06:26:48.008Z,18.42
2019-04-10T06:27:20.465Z,19.45
2019-04-10T06:27:52.639Z,19.02
2019-04-10T06:28:25.876Z,19.62
2019-04-10T06:28:57.425Z,18.90
2019-04-10T06:29:28.913Z,18.92
2019-04-10T06:30:00.101Z,18.75
2019-04-10T06:30:32.244Z,26.45
2019-04-10T06:31:04.129Z,21.02
2019-04-10T06:31:35.505Z,27.58
2019-04-10T06:32:07.361Z,19.87
2019-04-10T06:32:39.653Z,19.17
2019-04-10T06:33:11.731Z,20.27
2019-04-10T06:33:43.115Z,18.57
2019-04-10T06:34:16.986Z,19.40
2019-04-10T06:34:48.121Z,20.68
2019-04-10T06:35:19.757Z,20.88
2019-04-10T06:35:51.127Z,19.45
2019-04-10T06:36:22.333Z,18.45
2019-04-10T06:36:53.562Z,18.30
2019-04-10T06:37:24.781Z,19.77
2019-04-10T06:37:56.835Z,19.42
2019-04-10T06:38:28.802Z,18.92
2019-04-10T06:39:00.396Z,16.95
2019-04-10T06:39:31.707Z,16.93
2019-04-10T06:40:12.685Z,18.87
2019-04-10T06:40:36.099Z,18.80
2019-04-10T06:41:08.358Z,18.73
2019-04-10T06:41:39.574Z,17.25
2019-04-10T06:42:12.030Z,17.85
2019-04-10T06:42:49.779Z,18.15
2019-04-10T06:43:17.003Z,19.92
2019-04-10T06:43:48.294Z,19.98
2019-04-10T06:44:21.655Z,19.07
2019-04-10T06:44:52.973Z,19.17
2019-04-10T06:45:24.201Z,19.52
2019-04-10T06:45:55.810Z,20.05
2019-04-10T06:46:27.164Z,20.62
2019-04-10T06:46:58.373Z,18.82
2019-04-10T06:47:30.659Z,20.60
2019-04-10T06:48:02.682Z,19.17
2019-04-10T06:48:34.235Z,20.88
2019-04-10T06:49:06.101Z,20.27
2019-04-10T06:49:38.705Z,21.95
2019-04-10T06:50:10.651Z,20.35
2019-04-10T06:50:41.914Z,19.60
2019-04-10T06:51:13.219Z,19.20
2019-04-10T06:51:45.117Z,20.10
2019-04-10T06:52:16.712Z,20.12
2019-04-10T06:52:47.916Z,19.23
2019-04-10T06:53:19.115Z,20.77
2019-04-10T06:54:00.890Z,21.05
2019-04-10T06:54:23.286Z,19.25
2019-04-10T06:54:55.409Z,19.25
2019-04-10T06:55:27.987Z,20.75
2019-04-10T06:55:59.254Z,21.23
2019-04-10T06:56:31.281Z,20.17
2019-04-10T06:57:02.860Z,19.27
2019-04-10T06:57:48.133Z,20.72
2019-04-10T06:58:07.551Z,19.60
2019-04-10T06:58:38.829Z,19.23